首页
METAR-TAF:

METAR-TAF

机场 :

大不里士, 伊朗

纬度: 38-05N, 经度: 046-17E, 海拔: 1367米

当前天气观测

该预报发布于24分钟前的09:00 UTC
风速8节,风向西
温度 11°C
湿度 54%
气压 1016 hPa
能见度10公里或以上
少量云层高于3500英尺
多云层高于10000英尺

METAR: OITT 010900Z 27008KT 9999 FEW035 BKN100 11/02 Q1015 A3000 NOSIG

时间: 13:54 (09:24 UTC)

预报

该预报发布于3小时和54分钟前的05:30 UTC
预报有效从01日的 06点(UTC)到 02日的 12点(UTC)
风速8节,风向东转东北
能見度: 8000
少量云层高于3500英尺, 积雨云.
散云层高于4000英尺
多云层高于10000英尺
短暂存在
从 01日的 09点(UTC)到 01日的 15点(UTC)
能見度: 4000
散云层高于3000英尺, 积雨云.
散云层高于3500英尺
阴天层高于9000英尺
雷暴, 雨
短暂存在
从 01日的 18点(UTC)到 01日的 24点(UTC)
能見度: 4000
阵雨
短暂存在
从 02日的 00点(UTC)到 02日的 05点(UTC)
能見度: 3000
轻雾
成为
从 02日的 06点(UTC)到 02日的 08点(UTC)
少量云层高于3500英尺
散云层高于10000英尺
短暂存在
从 02日的 09点(UTC)到 02日的 12点(UTC)
风速18节,风向西南

TAF: OITT 010530Z 0106/0212 07008KT 8000 FEW035CB SCT040 BKN100 TEMPO 0109/0115 4000 TSRA SCT030CB SCT035 OVC090 TEMPO 0118/0124 4000 SHRA TEMPO 0200/0205 3000 BR BECMG 0206/0208 FEW035 SCT100 TEMPO 0209/0212 23018KT

超过4000个机场的气象观测和天气预报(METAR&TAF报告)。

可查询的气象台以黄色和红色小点在地图上表示。

将鼠标移到小点上方,可查看气象台名称。

然后点击查看天气观测和预报。

如需切换地图:点击带黑十字的绿色按钮放大地图;点击带横线的绿色按钮缩小地图;或者点击绿色箭头查看邻近地区的地图。


METAR-TAF: